臺中航空站 - ATIS

SPECI RCMQ 182342Z 01006KT 0400 R36/0800D FG BKN002 BKN010 15/14 Q1021 NOSIG RMK A3016=

站台狀態:Online
最後更新:2019-01-19 08:00:02